createdAt,value
2023-02-05T00:01:32.930Z,79.16
2023-02-05T00:04:00.276Z,79.47
2023-02-05T00:06:27.392Z,79.57
2023-02-05T00:08:55.576Z,79.14
2023-02-05T00:11:23.471Z,79.45
2023-02-05T00:13:50.384Z,79.30
2023-02-05T00:16:21.014Z,79.43
2023-02-05T00:18:48.314Z,79.41
2023-02-05T00:21:16.388Z,79.58
2023-02-05T00:23:43.713Z,79.53
2023-02-05T00:26:11.019Z,79.36
2023-02-05T00:28:38.137Z,79.52
2023-02-05T00:31:19.656Z,79.45
2023-02-05T00:33:47.518Z,79.68
2023-02-05T00:36:15.181Z,79.82
2023-02-05T00:38:44.080Z,79.58
2023-02-05T00:41:11.757Z,79.50
2023-02-05T00:43:40.131Z,79.38
2023-02-05T00:46:10.594Z,79.81
2023-02-05T00:48:38.748Z,79.71
2023-02-05T00:51:06.168Z,79.63
2023-02-05T00:53:34.340Z,79.60
2023-02-05T00:56:01.482Z,79.33
2023-02-05T00:58:28.799Z,79.84
2023-02-05T01:00:57.958Z,79.57
2023-02-05T01:03:25.016Z,79.55
2023-02-05T01:05:51.953Z,79.50
2023-02-05T01:08:18.961Z,79.62
2023-02-05T01:10:49.500Z,79.59
2023-02-05T01:13:18.243Z,79.59
2023-02-05T01:15:45.946Z,79.52
2023-02-05T01:18:13.144Z,79.72
2023-02-05T01:20:41.889Z,79.43
2023-02-05T01:23:09.955Z,79.63
2023-02-05T01:25:37.554Z,79.81
2023-02-05T01:28:06.591Z,79.79
2023-02-05T01:30:34.136Z,79.72
2023-02-05T01:33:02.308Z,79.72
2023-02-05T01:35:29.668Z,79.71
2023-02-05T01:37:56.583Z,79.32
2023-02-05T01:40:23.622Z,79.45
2023-02-05T01:42:50.640Z,79.30
2023-02-05T01:45:23.562Z,79.59
2023-02-05T01:47:56.947Z,79.60
2023-02-05T01:50:38.872Z,79.35
2023-02-05T01:53:18.806Z,79.45
2023-02-05T01:55:56.091Z,79.51
2023-02-05T01:58:27.452Z,79.41
2023-02-05T02:00:54.763Z,79.61
2023-02-05T02:03:24.521Z,79.70
2023-02-05T02:05:51.777Z,79.68
2023-02-05T02:08:18.841Z,79.67
2023-02-05T02:10:48.294Z,79.51
2023-02-05T02:13:15.671Z,79.54
2023-02-05T02:15:42.869Z,79.35
2023-02-05T02:18:26.812Z,79.47
2023-02-05T02:21:38.953Z,79.14
2023-02-05T02:24:34.136Z,79.17
2023-02-05T02:27:15.988Z,79.18
2023-02-05T02:30:20.600Z,79.32
2023-02-05T02:33:35.170Z,79.34
2023-02-05T02:36:26.735Z,79.30
2023-02-05T02:39:09.316Z,79.26
2023-02-05T02:41:55.578Z,79.29
2023-02-05T02:44:56.098Z,79.43
2023-02-05T02:47:31.466Z,79.46
2023-02-05T02:50:13.099Z,79.72
2023-02-05T02:52:44.221Z,79.62
2023-02-05T02:55:13.256Z,79.51
2023-02-05T02:57:48.786Z,79.78
2023-02-05T03:00:27.238Z,79.81
2023-02-05T03:03:06.715Z,79.72
2023-02-05T03:05:36.610Z,79.75
2023-02-05T03:08:10.352Z,79.73
2023-02-05T03:11:12.654Z,79.94
2023-02-05T03:13:40.779Z,80.25
2023-02-05T03:16:08.264Z,79.83
2023-02-05T03:18:35.812Z,80.00
2023-02-05T03:21:16.700Z,79.83
2023-02-05T03:23:44.670Z,80.09
2023-02-05T03:26:34.921Z,79.98
2023-02-05T03:29:14.614Z,80.09
2023-02-05T03:32:01.284Z,79.95
2023-02-05T03:35:16.109Z,79.98
2023-02-05T03:38:08.810Z,80.09
2023-02-05T03:40:52.832Z,80.22
2023-02-05T03:43:47.694Z,80.07
2023-02-05T03:46:42.432Z,79.89
2023-02-05T03:49:35.256Z,79.83
2023-02-05T03:52:17.136Z,79.78
2023-02-05T03:55:03.603Z,79.97
2023-02-05T03:57:42.365Z,79.89
2023-02-05T04:00:12.646Z,79.76
2023-02-05T04:02:45.407Z,79.60
2023-02-05T04:05:17.360Z,80.01
2023-02-05T04:07:44.639Z,79.97
2023-02-05T04:10:12.756Z,79.77
2023-02-05T04:12:40.891Z,79.89
2023-02-05T04:15:11.574Z,80.12
2023-02-05T04:17:42.371Z,79.93
2023-02-05T04:20:10.711Z,79.77
2023-02-05T04:22:37.725Z,80.03
2023-02-05T04:25:04.953Z,79.86
2023-02-05T04:27:32.050Z,79.96
2023-02-05T04:30:01.030Z,80.17
2023-02-05T04:32:29.054Z,79.96
2023-02-05T04:34:56.076Z,80.17
2023-02-05T04:37:24.887Z,80.12
2023-02-05T04:39:52.027Z,80.01
2023-02-05T04:42:18.957Z,80.39
2023-02-05T04:44:45.923Z,80.35
2023-02-05T04:47:13.975Z,80.11
2023-02-05T04:49:40.904Z,80.37
2023-02-05T04:52:08.197Z,80.40
2023-02-05T04:54:37.092Z,80.42
2023-02-05T04:57:04.053Z,80.44
2023-02-05T04:59:31.569Z,80.59
2023-02-05T05:01:59.596Z,80.75
2023-02-05T05:04:26.943Z,80.46
2023-02-05T05:06:53.833Z,80.75
2023-02-05T05:09:23.945Z,80.57
2023-02-05T05:11:55.033Z,80.72
2023-02-05T05:14:22.473Z,80.18
2023-02-05T05:16:50.228Z,80.40
2023-02-05T05:19:17.218Z,80.80
2023-02-05T05:21:44.162Z,81.24
2023-02-05T05:24:11.119Z,81.40
2023-02-05T05:26:43.535Z,81.14
2023-02-05T05:29:14.344Z,81.15
2023-02-05T05:31:42.424Z,80.91
2023-02-05T05:34:09.376Z,81.00
2023-02-05T05:36:36.325Z,80.80
2023-02-05T05:39:22.025Z,81.18
2023-02-05T05:42:07.194Z,81.01
2023-02-05T05:44:34.122Z,81.19
2023-02-05T05:47:01.028Z,81.25
2023-02-05T05:49:28.136Z,80.89
2023-02-05T05:51:55.034Z,81.00
2023-02-05T05:54:21.981Z,81.08
2023-02-05T05:56:49.601Z,80.88
2023-02-05T05:59:16.711Z,81.08
2023-02-05T06:01:43.670Z,80.96
2023-02-05T06:04:10.655Z,80.92
2023-02-05T06:06:38.054Z,81.01
2023-02-05T06:09:05.046Z,80.97
2023-02-05T06:11:32.033Z,81.03
2023-02-05T06:13:59.000Z,81.15
2023-02-05T06:16:26.217Z,81.19
2023-02-05T06:18:54.862Z,81.03
2023-02-05T06:21:21.880Z,81.15
2023-02-05T06:23:48.881Z,81.09
2023-02-05T06:26:15.932Z,81.01
2023-02-05T06:28:42.866Z,80.87
2023-02-05T06:31:09.901Z,81.03
2023-02-05T06:33:36.832Z,81.05
2023-02-05T06:36:04.186Z,81.05
2023-02-05T06:38:31.134Z,80.91
2023-02-05T06:40:58.046Z,81.10
2023-02-05T06:43:25.038Z,80.75
2023-02-05T06:45:52.053Z,80.93
2023-02-05T06:48:18.994Z,81.00
2023-02-05T06:50:46.389Z,81.16
2023-02-05T06:53:14.002Z,80.99
2023-02-05T06:55:41.000Z,81.03
2023-02-05T06:58:07.969Z,81.19
2023-02-05T07:00:35.911Z,81.20
2023-02-05T07:03:02.994Z,81.36
2023-02-05T07:05:30.004Z,81.48
2023-02-05T07:07:56.941Z,81.53
2023-02-05T07:10:24.014Z,81.44
2023-02-05T07:12:50.939Z,81.70
2023-02-05T07:15:17.915Z,81.75
2023-02-05T07:17:44.854Z,81.96
2023-02-05T07:20:11.858Z,81.77
2023-02-05T07:22:38.918Z,82.10
2023-02-05T07:25:06.291Z,81.95
2023-02-05T07:27:33.257Z,82.39
2023-02-05T07:30:00.222Z,82.12
2023-02-05T07:32:27.165Z,82.12
2023-02-05T07:34:54.063Z,82.53
2023-02-05T07:37:21.623Z,82.08
2023-02-05T07:39:48.729Z,82.35
2023-02-05T07:42:15.715Z,82.39
2023-02-05T07:44:49.562Z,82.15
2023-02-05T07:47:16.656Z,82.61
2023-02-05T07:49:43.579Z,82.36
2023-02-05T07:52:10.484Z,82.29
2023-02-05T07:54:38.152Z,82.94
2023-02-05T07:57:06.940Z,83.49
2023-02-05T07:59:34.017Z,83.23
2023-02-05T08:02:00.971Z,82.60
2023-02-05T08:04:27.952Z,83.55
2023-02-05T08:06:54.916Z,82.69
2023-02-05T08:09:21.844Z,83.26
2023-02-05T08:11:48.846Z,83.69
2023-02-05T08:14:15.796Z,83.59
2023-02-05T08:16:42.751Z,84.12
2023-02-05T08:19:15.750Z,83.69
2023-02-05T08:21:43.884Z,83.93
2023-02-05T08:24:10.955Z,83.47
2023-02-05T08:26:37.874Z,83.45
2023-02-05T08:29:04.837Z,84.09
2023-02-05T08:31:31.816Z,83.81
2023-02-05T08:34:00.019Z,83.88
2023-02-05T08:36:27.819Z,84.79
2023-02-05T08:38:55.124Z,84.45
2023-02-05T08:41:22.672Z,84.40
2023-02-05T08:43:51.307Z,84.32
2023-02-05T08:46:21.865Z,84.73
2023-02-05T08:48:49.353Z,84.82
2023-02-05T08:51:19.455Z,84.44
2023-02-05T08:53:46.862Z,84.17
2023-02-05T08:56:14.351Z,84.27
2023-02-05T08:58:41.771Z,83.79
2023-02-05T09:01:17.482Z,84.15
2023-02-05T09:03:45.393Z,84.53
2023-02-05T09:06:16.018Z,84.12
2023-02-05T09:08:43.505Z,84.45
2023-02-05T09:11:13.338Z,84.27
2023-02-05T09:13:41.060Z,84.18
2023-02-05T09:16:11.190Z,84.10
2023-02-05T09:18:38.221Z,84.74
2023-02-05T09:21:10.322Z,84.97
2023-02-05T09:23:37.868Z,84.59
2023-02-05T09:26:05.441Z,84.14
2023-02-05T09:28:32.428Z,84.45
2023-02-05T09:31:04.187Z,84.39
2023-02-05T09:33:31.173Z,84.43
2023-02-05T09:35:58.062Z,84.73
2023-02-05T09:38:24.971Z,84.86
2023-02-05T09:41:09.473Z,84.44
2023-02-05T09:43:54.784Z,84.08
2023-02-05T09:46:53.301Z,84.10
2023-02-05T09:49:29.613Z,84.22
2023-02-05T09:52:27.302Z,84.24
2023-02-05T09:55:07.573Z,84.27
2023-02-05T09:57:40.638Z,84.33
2023-02-05T10:00:52.598Z,84.28
2023-02-05T10:03:29.770Z,84.57
2023-02-05T10:06:30.881Z,84.44
2023-02-05T10:09:44.498Z,84.37
2023-02-05T10:12:31.948Z,84.36
2023-02-05T10:15:37.368Z,84.54
2023-02-05T10:19:05.375Z,84.22
2023-02-05T10:22:04.571Z,84.44
2023-02-05T10:25:18.243Z,84.27
2023-02-05T10:28:33.412Z,84.31
2023-02-05T10:31:21.845Z,84.48
2023-02-05T10:33:56.041Z,84.41
2023-02-05T10:36:26.668Z,84.58
2023-02-05T10:38:56.984Z,84.49
2023-02-05T10:41:39.639Z,84.57
2023-02-05T10:44:40.302Z,84.28
2023-02-05T10:47:42.300Z,84.24
2023-02-05T10:50:46.752Z,84.51
2023-02-05T10:53:21.193Z,84.76
2023-02-05T10:55:48.673Z,84.49
2023-02-05T10:58:40.456Z,84.22
2023-02-05T11:01:23.725Z,84.31
2023-02-05T11:04:12.427Z,84.42
2023-02-05T11:06:53.436Z,84.54
2023-02-05T11:09:26.303Z,84.59
2023-02-05T11:11:56.485Z,84.73
2023-02-05T11:14:39.722Z,84.79
2023-02-05T11:17:21.105Z,84.65
2023-02-05T11:20:04.848Z,84.93
2023-02-05T11:22:35.746Z,85.14
2023-02-05T11:25:21.280Z,84.68
2023-02-05T11:27:55.663Z,84.83
2023-02-05T11:30:53.084Z,85.18
2023-02-05T11:33:28.770Z,84.98
2023-02-05T11:36:05.562Z,84.96
2023-02-05T11:38:47.900Z,85.17
2023-02-05T11:41:47.965Z,84.97
2023-02-05T11:44:31.964Z,84.71
2023-02-05T11:47:01.577Z,85.30
2023-02-05T11:49:35.296Z,85.37
2023-02-05T11:52:13.967Z,85.14
2023-02-05T11:54:47.442Z,85.30
2023-02-05T11:57:19.961Z,85.21
2023-02-05T12:00:03.546Z,85.39
2023-02-05T12:02:35.793Z,85.36
2023-02-05T12:05:24.040Z,85.38
2023-02-05T12:08:16.124Z,85.28
2023-02-05T12:11:16.894Z,84.96
2023-02-05T12:14:19.513Z,84.99
2023-02-05T12:17:02.772Z,85.46
2023-02-05T12:19:57.036Z,85.30
2023-02-05T12:22:51.029Z,85.31
2023-02-05T12:25:23.746Z,85.46
2023-02-05T12:28:30.774Z,85.31
2023-02-05T12:31:09.486Z,85.51
2023-02-05T12:34:13.774Z,85.23
2023-02-05T12:37:12.023Z,85.44
2023-02-05T12:39:54.573Z,85.37
2023-02-05T12:42:40.404Z,85.64
2023-02-05T12:45:35.271Z,85.39
2023-02-05T12:48:39.151Z,85.39
2023-02-05T12:51:46.940Z,85.71
2023-02-05T12:54:42.534Z,85.76
2023-02-05T12:57:40.536Z,85.48
2023-02-05T13:00:24.340Z,85.73
2023-02-05T13:03:18.454Z,85.38
2023-02-05T13:06:28.156Z,85.36
2023-02-05T13:09:08.103Z,85.79
2023-02-05T13:11:56.316Z,85.62
2023-02-05T13:14:54.809Z,85.73
2023-02-05T13:17:27.029Z,86.04
2023-02-05T13:20:46.814Z,86.18
2023-02-05T13:23:33.760Z,86.10
2023-02-05T13:26:21.964Z,86.07
2023-02-05T13:28:56.988Z,85.90
2023-02-05T13:31:42.104Z,86.35
2023-02-05T13:34:13.981Z,86.41
2023-02-05T13:37:12.971Z,86.07
2023-02-05T13:40:08.941Z,86.14
2023-02-05T13:43:03.304Z,86.22
2023-02-05T13:46:03.282Z,86.19
2023-02-05T13:49:07.302Z,86.22
2023-02-05T13:52:08.076Z,86.36
2023-02-05T13:55:11.863Z,86.60
2023-02-05T13:58:19.366Z,86.67
2023-02-05T14:01:25.494Z,86.91
2023-02-05T14:04:08.573Z,86.98
2023-02-05T14:06:39.916Z,86.98
2023-02-05T14:09:18.969Z,87.23
2023-02-05T14:12:00.006Z,87.18
2023-02-05T14:14:36.117Z,87.17
2023-02-05T14:17:28.824Z,86.91
2023-02-05T14:19:58.809Z,87.15
2023-02-05T14:22:43.212Z,87.12
2023-02-05T14:25:36.873Z,86.99
2023-02-05T14:28:15.943Z,87.27
2023-02-05T14:30:57.220Z,87.23
2023-02-05T14:33:45.515Z,87.46
2023-02-05T14:36:20.746Z,87.12
2023-02-05T14:39:04.124Z,87.30
2023-02-05T14:41:50.332Z,87.38
2023-02-05T14:44:25.741Z,87.36
2023-02-05T14:47:03.175Z,87.45
2023-02-05T14:49:32.902Z,87.77
2023-02-05T14:52:25.529Z,87.53
2023-02-05T14:55:04.822Z,87.53
2023-02-05T14:57:51.910Z,87.69
2023-02-05T15:00:32.322Z,87.70
2023-02-05T15:03:04.719Z,87.54
2023-02-05T15:05:36.586Z,87.69
2023-02-05T15:08:34.609Z,87.57
2023-02-05T15:11:46.432Z,87.75
2023-02-05T15:14:30.766Z,87.64
2023-02-05T15:17:06.641Z,87.52
2023-02-05T15:19:42.026Z,87.60
2023-02-05T15:22:40.520Z,87.52
2023-02-05T15:25:35.959Z,87.72
2023-02-05T15:28:21.755Z,87.81
2023-02-05T15:31:14.901Z,87.67
2023-02-05T15:34:34.586Z,87.16
2023-02-05T15:37:10.288Z,87.30
2023-02-05T15:39:44.843Z,87.43
2023-02-05T15:42:28.093Z,87.56
2023-02-05T15:44:55.200Z,87.55
2023-02-05T15:47:26.128Z,87.82
2023-02-05T15:49:57.825Z,87.46
2023-02-05T15:52:29.533Z,87.36
2023-02-05T15:55:08.556Z,87.40
2023-02-05T15:57:35.686Z,87.48
2023-02-05T16:00:07.362Z,87.71
2023-02-05T16:02:34.487Z,87.49
2023-02-05T16:05:16.847Z,87.43
2023-02-05T16:07:48.493Z,87.41
2023-02-05T16:10:23.256Z,87.00
2023-02-05T16:13:05.193Z,87.02
2023-02-05T16:15:40.767Z,87.19
2023-02-05T16:18:32.976Z,87.23
2023-02-05T16:21:38.626Z,86.74
2023-02-05T16:24:33.194Z,87.00
2023-02-05T16:27:18.958Z,87.05
2023-02-05T16:29:54.954Z,87.24
2023-02-05T16:32:33.538Z,87.45
2023-02-05T16:35:03.909Z,87.73
2023-02-05T16:37:32.088Z,87.53
2023-02-05T16:40:03.222Z,87.60
2023-02-05T16:42:38.137Z,87.50
2023-02-05T16:45:08.127Z,87.50
2023-02-05T16:47:36.374Z,87.30
2023-02-05T16:50:38.018Z,86.82
2023-02-05T16:53:22.032Z,87.11
2023-02-05T16:55:52.023Z,87.46
2023-02-05T16:58:26.252Z,87.55
2023-02-05T17:00:59.661Z,87.30
2023-02-05T17:03:34.916Z,87.39
2023-02-05T17:06:08.707Z,87.43
2023-02-05T17:08:37.110Z,87.60
2023-02-05T17:11:34.473Z,87.15
2023-02-05T17:14:32.929Z,87.05
2023-02-05T17:17:17.184Z,87.05
2023-02-05T17:20:01.651Z,87.70
2023-02-05T17:22:28.726Z,87.38
2023-02-05T17:24:55.727Z,87.34
2023-02-05T17:27:33.531Z,87.57
2023-02-05T17:30:00.610Z,87.76
2023-02-05T17:32:29.276Z,87.68
2023-02-05T17:34:56.320Z,87.73
2023-02-05T17:37:23.371Z,87.42
2023-02-05T17:39:51.449Z,87.42
2023-02-05T17:42:24.978Z,87.32
2023-02-05T17:44:53.564Z,87.47
2023-02-05T17:47:20.557Z,87.47
2023-02-05T17:49:47.774Z,87.72
2023-02-05T17:52:15.661Z,87.37
2023-02-05T17:54:43.560Z,87.66
2023-02-05T17:57:22.353Z,87.40
2023-02-05T17:59:50.072Z,87.68
2023-02-05T18:02:17.583Z,87.50
2023-02-05T18:04:45.294Z,87.67
2023-02-05T18:07:38.197Z,87.26
2023-02-05T18:10:06.566Z,87.60
2023-02-05T18:12:33.571Z,87.41
2023-02-05T18:15:00.544Z,87.44
2023-02-05T18:17:27.479Z,87.88
2023-02-05T18:19:54.438Z,87.81
2023-02-05T18:22:21.595Z,87.83
2023-02-05T18:24:48.539Z,87.60
2023-02-05T18:27:15.546Z,87.78
2023-02-05T18:29:43.809Z,87.63
2023-02-05T18:32:10.989Z,87.80
2023-02-05T18:34:39.788Z,87.71
2023-02-05T18:37:06.784Z,87.45
2023-02-05T18:39:33.690Z,87.74
2023-02-05T18:42:00.878Z,87.91
2023-02-05T18:44:28.042Z,87.79
2023-02-05T18:46:55.069Z,87.47
2023-02-05T18:49:22.177Z,87.60
2023-02-05T18:51:49.155Z,87.18
2023-02-05T18:54:16.106Z,87.55
2023-02-05T18:56:43.151Z,87.64
2023-02-05T18:59:15.876Z,87.07
2023-02-05T19:01:43.140Z,87.45
2023-02-05T19:04:14.249Z,87.58
2023-02-05T19:06:48.895Z,86.95
2023-02-05T19:09:15.917Z,87.44
2023-02-05T19:11:44.103Z,87.63
2023-02-05T19:14:14.354Z,87.34
2023-02-05T19:16:41.427Z,87.62
2023-02-05T19:19:08.755Z,87.67
2023-02-05T19:21:36.156Z,87.39
2023-02-05T19:24:09.625Z,87.20
2023-02-05T19:26:39.422Z,87.49
2023-02-05T19:29:11.849Z,87.23
2023-02-05T19:31:38.923Z,87.49
2023-02-05T19:34:06.392Z,87.65
2023-02-05T19:36:33.917Z,87.47
2023-02-05T19:39:06.577Z,87.28
2023-02-05T19:41:35.822Z,87.45
2023-02-05T19:44:06.480Z,87.46
2023-02-05T19:46:41.925Z,87.42
2023-02-05T19:49:17.349Z,87.21
2023-02-05T19:51:46.393Z,87.58
2023-02-05T19:54:14.909Z,87.43
2023-02-05T19:56:45.266Z,87.34
2023-02-05T19:59:13.070Z,87.66
2023-02-05T20:01:43.619Z,87.43
2023-02-05T20:04:24.756Z,87.27
2023-02-05T20:06:55.655Z,87.13
2023-02-05T20:09:23.289Z,87.73
2023-02-05T20:11:52.657Z,87.79
2023-02-05T20:14:20.248Z,87.70
2023-02-05T20:16:47.458Z,87.71
2023-02-05T20:19:16.841Z,87.76
2023-02-05T20:21:45.717Z,87.96
2023-02-05T20:24:13.021Z,87.88
2023-02-05T20:26:40.028Z,87.72
2023-02-05T20:29:25.635Z,87.62
2023-02-05T20:31:54.746Z,87.54
2023-02-05T20:34:30.270Z,87.74
2023-02-05T20:37:04.727Z,87.55
2023-02-05T20:39:34.772Z,88.00
2023-02-05T20:42:02.485Z,87.77
2023-02-05T20:44:33.731Z,87.67
2023-02-05T20:47:00.803Z,87.75
2023-02-05T20:49:28.388Z,87.96
2023-02-05T20:51:57.972Z,88.14
2023-02-05T20:54:25.000Z,88.03
2023-02-05T20:56:56.881Z,87.81
2023-02-05T20:59:24.662Z,87.53
2023-02-05T21:01:52.054Z,87.75
2023-02-05T21:04:20.289Z,87.85
2023-02-05T21:06:48.116Z,87.72
2023-02-05T21:09:16.880Z,87.69
2023-02-05T21:11:43.786Z,88.04
2023-02-05T21:14:11.175Z,87.86
2023-02-05T21:16:39.024Z,87.79
2023-02-05T21:19:07.589Z,87.49
2023-02-05T21:21:36.723Z,87.93
2023-02-05T21:24:08.328Z,87.87
2023-02-05T21:26:46.159Z,87.52
2023-02-05T21:29:20.444Z,88.10
2023-02-05T21:31:50.669Z,88.21
2023-02-05T21:34:23.545Z,88.06
2023-02-05T21:36:51.679Z,87.97
2023-02-05T21:39:20.297Z,87.75
2023-02-05T21:41:48.497Z,87.97
2023-02-05T21:44:15.386Z,87.91
2023-02-05T21:46:42.714Z,87.73
2023-02-05T21:49:11.273Z,88.17
2023-02-05T21:51:38.314Z,87.77
2023-02-05T21:54:06.238Z,88.04
2023-02-05T21:56:40.862Z,88.09
2023-02-05T21:59:08.280Z,88.34
2023-02-05T22:01:36.735Z,88.36
2023-02-05T22:04:15.635Z,88.11
2023-02-05T22:06:43.279Z,88.00
2023-02-05T22:09:14.632Z,88.38
2023-02-05T22:11:42.251Z,88.32
2023-02-05T22:14:10.948Z,88.08
2023-02-05T22:16:38.949Z,88.03
2023-02-05T22:19:06.704Z,88.09
2023-02-05T22:21:37.404Z,88.13
2023-02-05T22:24:06.540Z,87.94
2023-02-05T22:26:37.033Z,87.66
2023-02-05T22:29:07.050Z,87.81
2023-02-05T22:31:34.947Z,87.71
2023-02-05T22:34:02.480Z,87.94
2023-02-05T22:36:32.637Z,87.75
2023-02-05T22:39:00.140Z,87.82
2023-02-05T22:41:34.551Z,87.76
2023-02-05T22:44:03.829Z,88.16
2023-02-05T22:46:34.860Z,87.90
2023-02-05T22:49:03.153Z,88.05
2023-02-05T22:51:34.036Z,87.98
2023-02-05T22:54:01.290Z,88.13
2023-02-05T22:56:28.630Z,87.99
2023-02-05T22:58:56.560Z,88.06
2023-02-05T23:01:30.179Z,88.06
2023-02-05T23:03:58.590Z,88.27
2023-02-05T23:06:35.162Z,88.32
2023-02-05T23:09:16.525Z,88.10
2023-02-05T23:11:44.635Z,88.27
2023-02-05T23:14:13.911Z,88.13
2023-02-05T23:16:44.440Z,88.48
2023-02-05T23:19:16.128Z,88.25
2023-02-05T23:21:43.219Z,88.55
2023-02-05T23:24:10.673Z,88.55
2023-02-05T23:26:42.570Z,88.31
2023-02-05T23:29:12.254Z,88.26
2023-02-05T23:31:39.573Z,88.52
2023-02-05T23:34:06.761Z,88.67
2023-02-05T23:36:33.819Z,88.54
2023-02-05T23:39:00.812Z,88.38
2023-02-05T23:41:37.097Z,88.57
2023-02-05T23:44:15.775Z,88.31
2023-02-05T23:46:43.709Z,88.32
2023-02-05T23:49:11.294Z,88.49
2023-02-05T23:51:38.707Z,88.30
2023-02-05T23:54:08.587Z,88.14
2023-02-05T23:56:35.508Z,88.22
2023-02-05T23:59:03.164Z,88.29
